sensor_id;sensor_type;location;lat;lon;timestamp;pressure;altitude;pressure_sealevel;temperature;humidity
56568;BME280;42456;49.956;20.004;2024-01-25T00:00:39;98073.91;;;5.92;78.00
56568;BME280;42456;49.956;20.004;2024-01-25T00:03:06;98070.70;;;5.90;78.09
56568;BME280;42456;49.956;20.004;2024-01-25T00:05:33;98075.16;;;5.91;77.59
56568;BME280;42456;49.956;20.004;2024-01-25T00:08:00;98074.60;;;5.92;77.55
56568;BME280;42456;49.956;20.004;2024-01-25T00:10:27;98076.22;;;5.93;78.00
56568;BME280;42456;49.956;20.004;2024-01-25T00:12:54;98071.20;;;5.95;77.47
56568;BME280;42456;49.956;20.004;2024-01-25T00:15:22;98073.06;;;5.97;77.28
56568;BME280;42456;49.956;20.004;2024-01-25T00:17:49;98079.35;;;6.01;76.88
56568;BME280;42456;49.956;20.004;2024-01-25T00:20:16;98082.34;;;6.03;77.07
56568;BME280;42456;49.956;20.004;2024-01-25T00:22:44;98085.73;;;6.05;77.17
56568;BME280;42456;49.956;20.004;2024-01-25T00:25:10;98088.26;;;6.06;77.16
56568;BME280;42456;49.956;20.004;2024-01-25T00:27:37;98085.23;;;6.07;76.82
56568;BME280;42456;49.956;20.004;2024-01-25T00:30:05;98084.05;;;6.08;76.42
56568;BME280;42456;49.956;20.004;2024-01-25T00:32:32;98094.60;;;6.08;76.81
56568;BME280;42456;49.956;20.004;2024-01-25T00:34:59;98091.71;;;6.08;76.75
56568;BME280;42456;49.956;20.004;2024-01-25T00:37:26;98088.29;;;6.08;76.67
56568;BME280;42456;49.956;20.004;2024-01-25T00:39:54;98079.64;;;6.08;76.66
56568;BME280;42456;49.956;20.004;2024-01-25T00:42:22;98078.34;;;6.08;76.67
56568;BME280;42456;49.956;20.004;2024-01-25T00:44:53;98072.13;;;6.06;76.88
56568;BME280;42456;49.956;20.004;2024-01-25T00:47:20;98074.44;;;6.03;76.44
56568;BME280;42456;49.956;20.004;2024-01-25T00:49:48;98072.80;;;6.01;76.28
56568;BME280;42456;49.956;20.004;2024-01-25T00:52:15;98079.16;;;6.00;76.11
56568;BME280;42456;49.956;20.004;2024-01-25T00:54:42;98071.64;;;5.99;76.25
56568;BME280;42456;49.956;20.004;2024-01-25T00:57:10;98078.84;;;6.00;76.12
56568;BME280;42456;49.956;20.004;2024-01-25T00:59:38;98079.25;;;6.00;75.98
56568;BME280;42456;49.956;20.004;2024-01-25T01:02:05;98086.11;;;6.02;76.13
56568;BME280;42456;49.956;20.004;2024-01-25T01:04:35;98085.08;;;6.02;76.40
56568;BME280;42456;49.956;20.004;2024-01-25T01:07:14;98082.98;;;6.05;76.09
56568;BME280;42456;49.956;20.004;2024-01-25T01:09:41;98076.45;;;6.05;76.03
56568;BME280;42456;49.956;20.004;2024-01-25T01:12:09;98073.86;;;6.07;76.04
56568;BME280;42456;49.956;20.004;2024-01-25T01:14:35;98084.61;;;6.08;75.86
56568;BME280;42456;49.956;20.004;2024-01-25T01:17:02;98077.61;;;6.09;75.73
56568;BME280;42456;49.956;20.004;2024-01-25T01:19:29;98079.30;;;6.09;76.16
56568;BME280;42456;49.956;20.004;2024-01-25T01:21:56;98078.18;;;6.09;76.07
56568;BME280;42456;49.956;20.004;2024-01-25T01:24:23;98076.94;;;6.10;75.83
56568;BME280;42456;49.956;20.004;2024-01-25T01:26:50;98075.04;;;6.12;75.78
56568;BME280;42456;49.956;20.004;2024-01-25T01:29:17;98070.73;;;6.13;75.64
56568;BME280;42456;49.956;20.004;2024-01-25T01:31:45;98066.65;;;6.13;75.44
56568;BME280;42456;49.956;20.004;2024-01-25T01:34:12;98070.22;;;6.14;75.53
56568;BME280;42456;49.956;20.004;2024-01-25T01:36:40;98071.62;;;6.15;75.39
56568;BME280;42456;49.956;20.004;2024-01-25T01:39:07;98073.27;;;6.16;75.43
56568;BME280;42456;49.956;20.004;2024-01-25T01:41:34;98067.47;;;6.17;74.88
56568;BME280;42456;49.956;20.004;2024-01-25T01:44:01;98085.70;;;6.19;75.15
56568;BME280;42456;49.956;20.004;2024-01-25T01:46:38;98073.58;;;6.20;74.84
56568;BME280;42456;49.956;20.004;2024-01-25T01:49:07;98077.16;;;6.20;74.65
56568;BME280;42456;49.956;20.004;2024-01-25T01:51:38;98081.72;;;6.20;74.82
56568;BME280;42456;49.956;20.004;2024-01-25T01:54:07;98080.44;;;6.19;74.68
56568;BME280;42456;49.956;20.004;2024-01-25T01:56:35;98074.83;;;6.18;74.58
56568;BME280;42456;49.956;20.004;2024-01-25T01:59:04;98074.47;;;6.17;74.64
56568;BME280;42456;49.956;20.004;2024-01-25T02:01:32;98075.54;;;6.15;75.14
56568;BME280;42456;49.956;20.004;2024-01-25T02:04:00;98074.55;;;6.14;74.67
56568;BME280;42456;49.956;20.004;2024-01-25T02:06:27;98070.77;;;6.13;74.69
56568;BME280;42456;49.956;20.004;2024-01-25T02:08:54;98072.96;;;6.13;74.44
56568;BME280;42456;49.956;20.004;2024-01-25T02:11:25;98073.42;;;6.12;74.28
56568;BME280;42456;49.956;20.004;2024-01-25T02:13:52;98067.89;;;6.11;74.26
56568;BME280;42456;49.956;20.004;2024-01-25T02:16:19;98063.20;;;6.10;74.58
56568;BME280;42456;49.956;20.004;2024-01-25T02:18:47;98069.48;;;6.09;74.30
56568;BME280;42456;49.956;20.004;2024-01-25T02:21:15;98062.56;;;6.08;74.04
56568;BME280;42456;49.956;20.004;2024-01-25T02:23:43;98070.42;;;6.08;73.82
56568;BME280;42456;49.956;20.004;2024-01-25T02:26:09;98067.66;;;6.08;73.49
56568;BME280;42456;49.956;20.004;2024-01-25T02:28:36;98069.98;;;6.08;73.72
56568;BME280;42456;49.956;20.004;2024-01-25T02:31:04;98068.66;;;6.08;73.77
56568;BME280;42456;49.956;20.004;2024-01-25T02:33:31;98068.05;;;6.08;73.91
56568;BME280;42456;49.956;20.004;2024-01-25T02:35:58;98061.55;;;6.08;73.91
56568;BME280;42456;49.956;20.004;2024-01-25T02:38:25;98058.83;;;6.08;73.31
56568;BME280;42456;49.956;20.004;2024-01-25T02:40:52;98052.17;;;6.09;73.30
56568;BME280;42456;49.956;20.004;2024-01-25T02:43:22;98047.73;;;6.10;73.66
56568;BME280;42456;49.956;20.004;2024-01-25T02:45:49;98041.67;;;6.09;73.21
56568;BME280;42456;49.956;20.004;2024-01-25T02:48:17;98048.06;;;6.09;73.02
56568;BME280;42456;49.956;20.004;2024-01-25T02:50:44;98039.84;;;6.10;72.91
56568;BME280;42456;49.956;20.004;2024-01-25T02:53:11;98044.47;;;6.11;72.53
56568;BME280;42456;49.956;20.004;2024-01-25T02:55:38;98046.84;;;6.11;72.63
56568;BME280;42456;49.956;20.004;2024-01-25T02:58:05;98042.30;;;6.12;72.28
56568;BME280;42456;49.956;20.004;2024-01-25T03:00:32;98045.44;;;6.12;72.48
56568;BME280;42456;49.956;20.004;2024-01-25T03:02:59;98041.27;;;6.12;72.21
56568;BME280;42456;49.956;20.004;2024-01-25T03:05:26;98038.32;;;6.13;71.80
56568;BME280;42456;49.956;20.004;2024-01-25T03:07:53;98041.19;;;6.13;71.80
56568;BME280;42456;49.956;20.004;2024-01-25T03:10:20;98045.77;;;6.14;72.11
56568;BME280;42456;49.956;20.004;2024-01-25T03:12:47;98051.30;;;6.14;71.79
56568;BME280;42456;49.956;20.004;2024-01-25T03:15:14;98053.81;;;6.14;71.15
56568;BME280;42456;49.956;20.004;2024-01-25T03:17:42;98048.94;;;6.15;71.33
56568;BME280;42456;49.956;20.004;2024-01-25T03:20:10;98051.87;;;6.15;71.37
56568;BME280;42456;49.956;20.004;2024-01-25T03:22:37;98061.11;;;6.15;70.87
56568;BME280;42456;49.956;20.004;2024-01-25T03:25:05;98058.26;;;6.16;70.72
56568;BME280;42456;49.956;20.004;2024-01-25T03:27:31;98064.42;;;6.17;70.82
56568;BME280;42456;49.956;20.004;2024-01-25T03:29:59;98059.34;;;6.18;70.37
56568;BME280;42456;49.956;20.004;2024-01-25T03:32:26;98058.90;;;6.18;70.43
56568;BME280;42456;49.956;20.004;2024-01-25T03:34:54;98052.65;;;6.18;70.10
56568;BME280;42456;49.956;20.004;2024-01-25T03:37:21;98052.61;;;6.18;69.79
56568;BME280;42456;49.956;20.004;2024-01-25T03:39:48;98050.28;;;6.17;69.96
56568;BME280;42456;49.956;20.004;2024-01-25T03:42:16;98041.96;;;6.17;69.54
56568;BME280;42456;49.956;20.004;2024-01-25T03:44:43;98042.77;;;6.18;69.73
56568;BME280;42456;49.956;20.004;2024-01-25T03:47:11;98040.05;;;6.18;69.42
56568;BME280;42456;49.956;20.004;2024-01-25T03:49:38;98042.59;;;6.19;69.14
56568;BME280;42456;49.956;20.004;2024-01-25T03:52:06;98051.55;;;6.19;68.82
56568;BME280;42456;49.956;20.004;2024-01-25T03:54:33;98057.63;;;6.20;69.28
56568;BME280;42456;49.956;20.004;2024-01-25T03:57:00;98048.02;;;6.20;68.99
56568;BME280;42456;49.956;20.004;2024-01-25T03:59:27;98054.83;;;6.21;69.21
56568;BME280;42456;49.956;20.004;2024-01-25T04:01:54;98060.02;;;6.21;68.91
56568;BME280;42456;49.956;20.004;2024-01-25T04:04:21;98058.88;;;6.21;68.99
56568;BME280;42456;49.956;20.004;2024-01-25T04:06:48;98057.31;;;6.22;69.09
56568;BME280;42456;49.956;20.004;2024-01-25T04:09:15;98062.12;;;6.22;69.13
56568;BME280;42456;49.956;20.004;2024-01-25T04:11:42;98059.51;;;6.21;68.80
56568;BME280;42456;49.956;20.004;2024-01-25T04:14:09;98062.20;;;6.21;69.02
56568;BME280;42456;49.956;20.004;2024-01-25T04:16:36;98071.09;;;6.20;68.96
56568;BME280;42456;49.956;20.004;2024-01-25T04:19:02;98083.23;;;6.19;68.71
56568;BME280;42456;49.956;20.004;2024-01-25T04:21:30;98096.79;;;6.17;68.61
56568;BME280;42456;49.956;20.004;2024-01-25T04:23:57;98093.58;;;6.15;69.38
56568;BME280;42456;49.956;20.004;2024-01-25T04:26:24;98096.94;;;6.09;69.63
56568;BME280;42456;49.956;20.004;2024-01-25T04:28:51;98090.13;;;6.01;70.18
56568;BME280;42456;49.956;20.004;2024-01-25T04:31:18;98088.63;;;5.94;70.59
56568;BME280;42456;49.956;20.004;2024-01-25T04:33:46;98077.02;;;5.90;70.39
56568;BME280;42456;49.956;20.004;2024-01-25T04:36:15;98075.69;;;5.86;70.23
56568;BME280;42456;49.956;20.004;2024-01-25T04:38:42;98072.95;;;5.85;70.04
56568;BME280;42456;49.956;20.004;2024-01-25T04:41:09;98067.71;;;5.85;69.53
56568;BME280;42456;49.956;20.004;2024-01-25T04:43:36;98063.85;;;5.86;69.77
56568;BME280;42456;49.956;20.004;2024-01-25T04:46:04;98065.34;;;5.87;70.15
56568;BME280;42456;49.956;20.004;2024-01-25T04:48:31;98067.11;;;5.88;69.65
56568;BME280;42456;49.956;20.004;2024-01-25T04:50:59;98068.34;;;5.88;69.24
56568;BME280;42456;49.956;20.004;2024-01-25T04:53:26;98069.16;;;5.89;69.50
56568;BME280;42456;49.956;20.004;2024-01-25T04:55:56;98067.44;;;5.90;69.43
56568;BME280;42456;49.956;20.004;2024-01-25T04:58:24;98065.98;;;5.91;69.58
56568;BME280;42456;49.956;20.004;2024-01-25T05:00:51;98065.20;;;5.92;68.64
56568;BME280;42456;49.956;20.004;2024-01-25T05:03:19;98061.73;;;5.92;68.81
56568;BME280;42456;49.956;20.004;2024-01-25T05:05:47;98067.02;;;5.92;68.86
56568;BME280;42456;49.956;20.004;2024-01-25T05:08:14;98063.54;;;5.93;68.94
56568;BME280;42456;49.956;20.004;2024-01-25T05:10:41;98068.65;;;5.93;69.28
56568;BME280;42456;49.956;20.004;2024-01-25T05:13:09;98065.39;;;5.93;69.06
56568;BME280;42456;49.956;20.004;2024-01-25T05:15:36;98067.33;;;5.93;69.12
56568;BME280;42456;49.956;20.004;2024-01-25T05:18:04;98071.55;;;5.93;69.50
56568;BME280;42456;49.956;20.004;2024-01-25T05:20:32;98074.52;;;5.93;69.46
56568;BME280;42456;49.956;20.004;2024-01-25T05:23:01;98073.29;;;5.93;69.22
56568;BME280;42456;49.956;20.004;2024-01-25T05:25:30;98077.54;;;5.92;69.43
56568;BME280;42456;49.956;20.004;2024-01-25T05:27:58;98081.28;;;5.91;69.62
56568;BME280;42456;49.956;20.004;2024-01-25T05:30:25;98086.58;;;5.90;69.81
56568;BME280;42456;49.956;20.004;2024-01-25T05:32:53;98082.08;;;5.87;69.97
56568;BME280;42456;49.956;20.004;2024-01-25T05:35:22;98084.42;;;5.85;70.09
56568;BME280;42456;49.956;20.004;2024-01-25T05:37:50;98081.66;;;5.82;70.92
56568;BME280;42456;49.956;20.004;2024-01-25T05:40:18;98078.79;;;5.80;70.70
56568;BME280;42456;49.956;20.004;2024-01-25T05:42:45;98081.64;;;5.79;71.03
56568;BME280;42456;49.956;20.004;2024-01-25T05:45:12;98075.06;;;5.77;71.26
56568;BME280;42456;49.956;20.004;2024-01-25T05:47:39;98077.05;;;5.76;71.06
56568;BME280;42456;49.956;20.004;2024-01-25T05:50:06;98069.55;;;5.76;70.74
56568;BME280;42456;49.956;20.004;2024-01-25T05:52:34;98076.70;;;5.75;70.94
56568;BME280;42456;49.956;20.004;2024-01-25T05:55:07;98090.11;;;5.75;71.29
56568;BME280;42456;49.956;20.004;2024-01-25T05:57:36;98080.58;;;5.74;70.84
56568;BME280;42456;49.956;20.004;2024-01-25T06:00:04;98084.09;;;5.72;71.23
56568;BME280;42456;49.956;20.004;2024-01-25T06:02:32;98078.45;;;5.72;71.34
56568;BME280;42456;49.956;20.004;2024-01-25T06:04:59;98078.66;;;5.72;71.36
56568;BME280;42456;49.956;20.004;2024-01-25T06:07:27;98084.84;;;5.72;71.66
56568;BME280;42456;49.956;20.004;2024-01-25T06:09:55;98072.35;;;5.72;71.28
56568;BME280;42456;49.956;20.004;2024-01-25T06:12:22;98081.16;;;5.72;71.46
56568;BME280;42456;49.956;20.004;2024-01-25T06:14:49;98089.33;;;5.72;71.72
56568;BME280;42456;49.956;20.004;2024-01-25T06:17:21;98088.38;;;5.71;72.16
56568;BME280;42456;49.956;20.004;2024-01-25T06:19:48;98079.48;;;5.68;72.39
56568;BME280;42456;49.956;20.004;2024-01-25T06:22:16;98068.77;;;5.66;72.87
56568;BME280;42456;49.956;20.004;2024-01-25T06:24:44;98059.25;;;5.64;72.56
56568;BME280;42456;49.956;20.004;2024-01-25T06:27:11;98067.07;;;5.63;72.85
56568;BME280;42456;49.956;20.004;2024-01-25T06:29:38;98061.91;;;5.62;72.61
56568;BME280;42456;49.956;20.004;2024-01-25T06:32:06;98075.69;;;5.62;73.31
56568;BME280;42456;49.956;20.004;2024-01-25T06:34:39;98090.27;;;5.61;73.26
56568;BME280;42456;49.956;20.004;2024-01-25T06:37:06;98087.79;;;5.60;73.53
56568;BME280;42456;49.956;20.004;2024-01-25T06:39:33;98084.19;;;5.58;73.33
56568;BME280;42456;49.956;20.004;2024-01-25T06:42:01;98085.92;;;5.57;73.56
56568;BME280;42456;49.956;20.004;2024-01-25T06:44:28;98083.92;;;5.56;73.44
56568;BME280;42456;49.956;20.004;2024-01-25T06:46:55;98087.32;;;5.54;74.19
56568;BME280;42456;49.956;20.004;2024-01-25T06:49:21;98095.46;;;5.53;74.27
56568;BME280;42456;49.956;20.004;2024-01-25T06:51:48;98102.85;;;5.51;74.31
56568;BME280;42456;49.956;20.004;2024-01-25T06:54:16;98100.38;;;5.48;74.94
56568;BME280;42456;49.956;20.004;2024-01-25T06:56:42;98103.42;;;5.45;74.78
56568;BME280;42456;49.956;20.004;2024-01-25T06:59:10;98103.76;;;5.41;75.54
56568;BME280;42456;49.956;20.004;2024-01-25T07:01:37;98109.66;;;5.38;75.98
56568;BME280;42456;49.956;20.004;2024-01-25T07:04:05;98115.67;;;5.33;76.23
56568;BME280;42456;49.956;20.004;2024-01-25T07:06:32;98109.00;;;5.28;76.61
56568;BME280;42456;49.956;20.004;2024-01-25T07:09:00;98111.79;;;5.25;76.02
56568;BME280;42456;49.956;20.004;2024-01-25T07:11:26;98114.27;;;5.23;76.40
56568;BME280;42456;49.956;20.004;2024-01-25T07:13:53;98106.66;;;5.20;76.92
56568;BME280;42456;49.956;20.004;2024-01-25T07:16:20;98106.77;;;5.17;77.24
56568;BME280;42456;49.956;20.004;2024-01-25T07:18:48;98107.61;;;5.16;76.90
56568;BME280;42456;49.956;20.004;2024-01-25T07:21:17;98102.39;;;5.15;77.44
56568;BME280;42456;49.956;20.004;2024-01-25T07:23:43;98099.51;;;5.15;76.85
56568;BME280;42456;49.956;20.004;2024-01-25T07:26:16;98105.34;;;5.15;77.76
56568;BME280;42456;49.956;20.004;2024-01-25T07:28:43;98107.07;;;5.14;77.82
56568;BME280;42456;49.956;20.004;2024-01-25T07:31:10;98101.27;;;5.14;77.70
56568;BME280;42456;49.956;20.004;2024-01-25T07:33:37;98103.61;;;5.13;77.80
56568;BME280;42456;49.956;20.004;2024-01-25T07:36:05;98101.42;;;5.14;77.74
56568;BME280;42456;49.956;20.004;2024-01-25T07:38:32;98098.03;;;5.15;77.68
56568;BME280;42456;49.956;20.004;2024-01-25T07:40:59;98099.61;;;5.16;77.79
56568;BME280;42456;49.956;20.004;2024-01-25T07:43:26;98108.55;;;5.16;77.30
56568;BME280;42456;49.956;20.004;2024-01-25T07:45:53;98107.84;;;5.17;77.54
56568;BME280;42456;49.956;20.004;2024-01-25T07:48:20;98103.18;;;5.18;77.83
56568;BME280;42456;49.956;20.004;2024-01-25T07:50:47;98098.67;;;5.20;77.77
56568;BME280;42456;49.956;20.004;2024-01-25T07:53:15;98108.32;;;5.20;78.14
56568;BME280;42456;49.956;20.004;2024-01-25T07:55:42;98110.77;;;5.20;78.04
56568;BME280;42456;49.956;20.004;2024-01-25T07:58:09;98114.08;;;5.20;78.37
56568;BME280;42456;49.956;20.004;2024-01-25T08:00:37;98118.85;;;5.21;78.18
56568;BME280;42456;49.956;20.004;2024-01-25T08:03:04;98114.40;;;5.20;78.09
56568;BME280;42456;49.956;20.004;2024-01-25T08:05:32;98124.27;;;5.19;78.07
56568;BME280;42456;49.956;20.004;2024-01-25T08:08:10;98123.92;;;5.19;78.26
56568;BME280;42456;49.956;20.004;2024-01-25T08:10:38;98125.95;;;5.18;78.38
56568;BME280;42456;49.956;20.004;2024-01-25T08:13:06;98141.10;;;5.18;78.42
56568;BME280;42456;49.956;20.004;2024-01-25T08:15:34;98154.07;;;5.17;78.89
56568;BME280;42456;49.956;20.004;2024-01-25T08:18:01;98161.69;;;5.17;78.91
56568;BME280;42456;49.956;20.004;2024-01-25T08:20:30;98162.39;;;5.15;79.86
56568;BME280;42456;49.956;20.004;2024-01-25T08:22:57;98162.30;;;5.11;79.40
56568;BME280;42456;49.956;20.004;2024-01-25T08:25:25;98159.23;;;5.07;80.30
56568;BME280;42456;49.956;20.004;2024-01-25T08:27:53;98156.80;;;5.03;80.12
56568;BME280;42456;49.956;20.004;2024-01-25T08:30:20;98161.93;;;5.00;80.58
56568;BME280;42456;49.956;20.004;2024-01-25T08:32:47;98161.92;;;4.97;80.49
56568;BME280;42456;49.956;20.004;2024-01-25T08:35:14;98161.66;;;4.94;80.96
56568;BME280;42456;49.956;20.004;2024-01-25T08:37:41;98149.72;;;4.91;81.45
56568;BME280;42456;49.956;20.004;2024-01-25T08:40:09;98146.71;;;4.90;81.32
56568;BME280;42456;49.956;20.004;2024-01-25T08:42:36;98144.95;;;4.88;81.89
56568;BME280;42456;49.956;20.004;2024-01-25T08:45:04;98142.02;;;4.87;81.95
56568;BME280;42456;49.956;20.004;2024-01-25T08:47:34;98139.88;;;4.87;81.99
56568;BME280;42456;49.956;20.004;2024-01-25T08:50:02;98145.05;;;4.88;82.07
56568;BME280;42456;49.956;20.004;2024-01-25T08:52:30;98146.02;;;4.88;82.58
56568;BME280;42456;49.956;20.004;2024-01-25T08:54:57;98146.66;;;4.87;82.88
56568;BME280;42456;49.956;20.004;2024-01-25T08:57:25;98156.45;;;4.85;83.18
56568;BME280;42456;49.956;20.004;2024-01-25T08:59:52;98158.63;;;4.82;82.93
56568;BME280;42456;49.956;20.004;2024-01-25T09:02:19;98155.60;;;4.81;83.21
56568;BME280;42456;49.956;20.004;2024-01-25T09:04:49;98161.27;;;4.81;83.00
56568;BME280;42456;49.956;20.004;2024-01-25T09:07:17;98159.08;;;4.81;83.60
56568;BME280;42456;49.956;20.004;2024-01-25T09:09:45;98153.59;;;4.81;83.31
56568;BME280;42456;49.956;20.004;2024-01-25T09:12:12;98149.20;;;4.82;83.45
56568;BME280;42456;49.956;20.004;2024-01-25T09:14:40;98144.91;;;4.87;83.87
56568;BME280;42456;49.956;20.004;2024-01-25T09:17:07;98145.88;;;4.92;83.86
56568;BME280;42456;49.956;20.004;2024-01-25T09:19:35;98144.35;;;4.96;83.75
56568;BME280;42456;49.956;20.004;2024-01-25T09:22:02;98146.63;;;5.00;84.13
56568;BME280;42456;49.956;20.004;2024-01-25T09:24:31;98143.80;;;5.03;83.89
56568;BME280;42456;49.956;20.004;2024-01-25T09:27:00;98146.06;;;5.05;84.14
56568;BME280;42456;49.956;20.004;2024-01-25T09:29:27;98151.96;;;5.05;83.83
56568;BME280;42456;49.956;20.004;2024-01-25T09:31:54;98148.94;;;5.07;84.35
56568;BME280;42456;49.956;20.004;2024-01-25T09:34:25;98140.88;;;5.09;83.85
56568;BME280;42456;49.956;20.004;2024-01-25T09:36:53;98146.55;;;5.09;83.98
56568;BME280;42456;49.956;20.004;2024-01-25T09:39:20;98151.27;;;5.11;83.44
56568;BME280;42456;49.956;20.004;2024-01-25T09:41:48;98141.11;;;5.13;83.92
56568;BME280;42456;49.956;20.004;2024-01-25T09:44:15;98143.45;;;5.18;83.89
56568;BME280;42456;49.956;20.004;2024-01-25T09:46:45;98147.39;;;5.20;83.89
56568;BME280;42456;49.956;20.004;2024-01-25T09:49:16;98152.74;;;5.19;83.19
56568;BME280;42456;49.956;20.004;2024-01-25T09:51:43;98152.73;;;5.18;83.76
56568;BME280;42456;49.956;20.004;2024-01-25T09:54:11;98154.45;;;5.17;83.48
56568;BME280;42456;49.956;20.004;2024-01-25T09:56:41;98162.90;;;5.16;83.41
56568;BME280;42456;49.956;20.004;2024-01-25T09:59:08;98157.33;;;5.17;83.64
56568;BME280;42456;49.956;20.004;2024-01-25T10:01:35;98156.30;;;5.20;83.36
56568;BME280;42456;49.956;20.004;2024-01-25T10:04:06;98155.20;;;5.22;83.81
56568;BME280;42456;49.956;20.004;2024-01-25T10:06:35;98156.70;;;5.27;83.70
56568;BME280;42456;49.956;20.004;2024-01-25T10:09:01;98154.25;;;5.30;83.16
56568;BME280;42456;49.956;20.004;2024-01-25T10:11:30;98157.94;;;5.32;83.28
56568;BME280;42456;49.956;20.004;2024-01-25T10:14:08;98168.66;;;5.34;83.01
56568;BME280;42456;49.956;20.004;2024-01-25T10:16:35;98164.16;;;5.37;83.01
56568;BME280;42456;49.956;20.004;2024-01-25T10:19:06;98160.74;;;5.41;83.11
56568;BME280;42456;49.956;20.004;2024-01-25T10:21:35;98166.39;;;5.44;82.97
56568;BME280;42456;49.956;20.004;2024-01-25T10:24:05;98165.19;;;5.45;82.74
56568;BME280;42456;49.956;20.004;2024-01-25T10:26:34;98168.94;;;5.44;82.42
56568;BME280;42456;49.956;20.004;2024-01-25T10:29:01;98175.30;;;5.41;82.35
56568;BME280;42456;49.956;20.004;2024-01-25T10:31:32;98188.93;;;5.37;82.69
56568;BME280;42456;49.956;20.004;2024-01-25T10:34:02;98192.02;;;5.35;82.06
56568;BME280;42456;49.956;20.004;2024-01-25T10:36:30;98189.38;;;5.36;82.21
56568;BME280;42456;49.956;20.004;2024-01-25T10:38:59;98181.78;;;5.37;82.43
56568;BME280;42456;49.956;20.004;2024-01-25T10:41:28;98182.21;;;5.37;82.48
56568;BME280;42456;49.956;20.004;2024-01-25T10:43:55;98181.78;;;5.37;82.18
56568;BME280;42456;49.956;20.004;2024-01-25T10:46:22;98182.04;;;5.38;81.92
56568;BME280;42456;49.956;20.004;2024-01-25T10:48:50;98187.11;;;5.37;81.52
56568;BME280;42456;49.956;20.004;2024-01-25T10:51:18;98179.82;;;5.36;81.48
56568;BME280;42456;49.956;20.004;2024-01-25T10:53:46;98175.19;;;5.36;81.63
56568;BME280;42456;49.956;20.004;2024-01-25T10:56:14;98165.93;;;5.37;81.12
56568;BME280;42456;49.956;20.004;2024-01-25T10:58:41;98168.22;;;5.37;81.68
56568;BME280;42456;49.956;20.004;2024-01-25T11:01:10;98166.04;;;5.38;80.99
56568;BME280;42456;49.956;20.004;2024-01-25T11:03:43;98167.97;;;5.37;81.35
56568;BME280;42456;49.956;20.004;2024-01-25T11:06:13;98175.75;;;5.37;81.19
56568;BME280;42456;49.956;20.004;2024-01-25T11:08:41;98179.71;;;5.37;81.16
56568;BME280;42456;49.956;20.004;2024-01-25T11:11:11;98180.65;;;5.37;80.87
56568;BME280;42456;49.956;20.004;2024-01-25T11:13:41;98177.61;;;5.37;80.99
56568;BME280;42456;49.956;20.004;2024-01-25T11:16:27;98177.72;;;5.37;80.53
56568;BME280;42456;49.956;20.004;2024-01-25T11:18:56;98183.77;;;5.36;80.68
56568;BME280;42456;49.956;20.004;2024-01-25T11:24:05;98184.59;;;5.34;80.41
56568;BME280;42456;49.956;20.004;2024-01-25T11:26:32;98181.81;;;5.33;80.93
56568;BME280;42456;49.956;20.004;2024-01-25T11:28:59;98181.27;;;5.33;80.19
56568;BME280;42456;49.956;20.004;2024-01-25T11:31:27;98174.59;;;5.34;80.15
56568;BME280;42456;49.956;20.004;2024-01-25T11:33:59;98171.27;;;5.35;79.88
56568;BME280;42456;49.956;20.004;2024-01-25T11:36:28;98170.89;;;5.37;79.97
56568;BME280;42456;49.956;20.004;2024-01-25T11:38:55;98174.05;;;5.39;79.54
56568;BME280;42456;49.956;20.004;2024-01-25T11:41:24;98175.15;;;5.41;79.34
56568;BME280;42456;49.956;20.004;2024-01-25T11:43:52;98178.49;;;5.44;78.57
56568;BME280;42456;49.956;20.004;2024-01-25T11:46:20;98175.87;;;5.47;78.72
56568;BME280;42456;49.956;20.004;2024-01-25T11:48:47;98180.32;;;5.52;78.39
56568;BME280;42456;49.956;20.004;2024-01-25T11:51:14;98197.08;;;5.56;78.10
56568;BME280;42456;49.956;20.004;2024-01-25T11:53:42;98200.16;;;5.59;77.97
56568;BME280;42456;49.956;20.004;2024-01-25T11:56:11;98198.63;;;5.61;77.52
56568;BME280;42456;49.956;20.004;2024-01-25T11:58:40;98204.21;;;5.62;77.44
56568;BME280;42456;49.956;20.004;2024-01-25T12:01:08;98200.86;;;5.63;77.59
56568;BME280;42456;49.956;20.004;2024-01-25T12:03:37;98203.63;;;5.65;77.58
56568;BME280;42456;49.956;20.004;2024-01-25T12:06:05;98209.68;;;5.66;77.27
56568;BME280;42456;49.956;20.004;2024-01-25T12:08:33;98208.52;;;5.67;76.99
56568;BME280;42456;49.956;20.004;2024-01-25T12:11:06;98212.84;;;5.68;76.95
56568;BME280;42456;49.956;20.004;2024-01-25T12:13:35;98211.66;;;5.68;76.54
56568;BME280;42456;49.956;20.004;2024-01-25T12:16:03;98217.84;;;5.69;76.46
56568;BME280;42456;49.956;20.004;2024-01-25T12:18:31;98224.17;;;5.69;76.40
56568;BME280;42456;49.956;20.004;2024-01-25T12:21:03;98227.17;;;5.69;76.14
56568;BME280;42456;49.956;20.004;2024-01-25T12:23:36;98231.06;;;5.69;75.65
56568;BME280;42456;49.956;20.004;2024-01-25T12:26:06;98238.68;;;5.69;75.77
56568;BME280;42456;49.956;20.004;2024-01-25T12:28:34;98229.98;;;5.69;75.73
56568;BME280;42456;49.956;20.004;2024-01-25T12:31:03;98232.13;;;5.69;76.26
56568;BME280;42456;49.956;20.004;2024-01-25T12:33:31;98231.11;;;5.69;76.30
56568;BME280;42456;49.956;20.004;2024-01-25T12:36:01;98234.71;;;5.71;76.08
56568;BME280;42456;49.956;20.004;2024-01-25T12:38:28;98239.90;;;5.71;76.27
56568;BME280;42456;49.956;20.004;2024-01-25T12:40:58;98239.11;;;5.70;76.52
56568;BME280;42456;49.956;20.004;2024-01-25T12:43:25;98233.86;;;5.70;76.60
56568;BME280;42456;49.956;20.004;2024-01-25T12:45:53;98232.88;;;5.69;76.47
56568;BME280;42456;49.956;20.004;2024-01-25T12:48:29;98233.78;;;5.69;76.41
56568;BME280;42456;49.956;20.004;2024-01-25T12:50:56;98233.77;;;5.70;76.56
56568;BME280;42456;49.956;20.004;2024-01-25T12:53:23;98224.07;;;5.69;76.02
56568;BME280;42456;49.956;20.004;2024-01-25T12:55:51;98221.98;;;5.69;76.50
56568;BME280;42456;49.956;20.004;2024-01-25T12:58:18;98229.27;;;5.68;76.26
56568;BME280;42456;49.956;20.004;2024-01-25T13:00:45;98231.40;;;5.68;76.36
56568;BME280;42456;49.956;20.004;2024-01-25T13:03:13;98232.25;;;5.69;76.12
56568;BME280;42456;49.956;20.004;2024-01-25T13:05:41;98230.64;;;5.69;75.87